Time;durP1;ratioP1;P1;durP2;ratioP2;P2;SDS_P1;SDS_P2;PMS_P1;PMS_P2;Temp;Humidity;BMP_temperature;BMP_pressure;BME280_temperature;BME280_humidity;BME280_pressure;Samples;Min_cycle;Max_cycle;Signal;HPM_P1;HPM_P2
2023/05/27 00:02:02;;;;;;;8.88;4.32;;;;;;;;;;5052961;28;20035;-69
2023/05/27 00:04:28;;;;;;;7.25;4.10;;;;;;;;;;5052716;28;20031;-69
2023/05/27 00:06:55;;;;;;;7.95;4.07;;;;;;;;;;5052626;28;20047;-69
2023/05/27 00:09:21;;;;;;;8.93;4.13;;;;;;;;;;5052474;28;20035;-69
2023/05/27 00:11:47;;;;;;;8.52;4.38;;;;;;;;;;5052513;28;20029;-69
2023/05/27 00:14:14;;;;;;;9.48;4.50;;;;;;;;;;5052789;28;20025;-69
2023/05/27 00:16:40;;;;;;;6.90;4.13;;;;;;;;;;5052559;28;20017;-69
2023/05/27 00:19:07;;;;;;;6.85;4.20;;;;;;;;;;5051287;28;20090;-69
2023/05/27 00:21:33;;;;;;;8.18;4.97;;;;;;;;;;5052494;28;20009;-69
2023/05/27 00:24:00;;;;;;;4.90;3.88;;;;;;;;;;5052308;28;20489;-69
2023/05/27 00:26:26;;;;;;;6.43;3.80;;;;;;;;;;5052422;28;20029;-69
2023/05/27 00:28:53;;;;;;;8.32;4.40;;;;;;;;;;5052288;28;20041;-69
2023/05/27 00:31:19;;;;;;;9.93;4.18;;;;;;;;;;5052266;28;20025;-68
2023/05/27 00:33:45;;;;;;;7.15;4.28;;;;;;;;;;5052287;28;20051;-69
2023/05/27 00:36:11;;;;;;;10.25;4.70;;;;;;;;;;5052109;28;20047;-69
2023/05/27 00:38:38;;;;;;;9.93;4.60;;;;;;;;;;5052102;28;20039;-69
2023/05/27 00:41:05;;;;;;;9.85;4.57;;;;;;;;;;5052143;28;20027;-68
2023/05/27 00:43:32;;;;;;;6.82;4.25;;;;;;;;;;5051969;28;20414;-69
2023/05/27 00:45:58;;;;;;;10.32;4.53;;;;;;;;;;5052110;28;20027;-69
2023/05/27 00:48:25;;;;;;;11.77;5.07;;;;;;;;;;5052164;28;20032;-69
2023/05/27 00:50:51;;;;;;;10.85;4.50;;;;;;;;;;5051926;28;20021;-69
2023/05/27 00:53:17;;;;;;;11.50;4.93;;;;;;;;;;5051821;28;20031;-68
2023/05/27 00:55:44;;;;;;;7.85;4.18;;;;;;;;;;5052110;28;20031;-69
2023/05/27 00:58:10;;;;;;;11.73;4.55;;;;;;;;;;5051701;28;20031;-69
2023/05/27 01:00:38;;;;;;;10.75;4.78;;;;;;;;;;5052004;28;20037;-69
2023/05/27 01:03:06;;;;;;;12.65;4.75;;;;;;;;;;5051810;28;20021;-69
2023/05/27 01:05:33;;;;;;;9.07;4.53;;;;;;;;;;5051951;28;20039;-69
2023/05/27 01:08:03;;;;;;;13.00;4.72;;;;;;;;;;5051765;28;20029;-69
2023/05/27 01:10:41;;;;;;;15.77;4.45;;;;;;;;;;5051975;28;20485;-68
2023/05/27 01:13:12;;;;;;;7.68;4.50;;;;;;;;;;5051675;28;20033;-69
2023/05/27 01:15:38;;;;;;;;;;;;;;;;;;5052251;28;20040;-69
2023/05/27 01:18:04;;;;;;;8.38;5.03;;;;;;;;;;5051618;28;20311;-69
2023/05/27 01:20:31;;;;;;;8.77;4.60;;;;;;;;;;5051989;28;20070;-69
2023/05/27 01:22:59;;;;;;;10.55;4.70;;;;;;;;;;5051315;28;20393;-69
2023/05/27 01:25:25;;;;;;;7.30;4.43;;;;;;;;;;5051565;28;20497;-69
2023/05/27 01:27:52;;;;;;;9.98;4.53;;;;;;;;;;5052053;28;20036;-69
2023/05/27 01:30:20;;;;;;;6.93;4.05;;;;;;;;;;5050936;28;20021;-69
2023/05/27 01:32:53;;;;;;;10.50;5.05;;;;;;;;;;5055509;28;20025;-69
2023/05/27 01:35:31;;;;;;;7.05;4.35;;;;;;;;;;5055349;28;20032;-69
2023/05/27 01:37:59;;;;;;;5.13;4.15;;;;;;;;;;5055483;28;20029;-69
2023/05/27 01:40:26;;;;;;;8.73;4.63;;;;;;;;;;5055806;28;20035;-69
2023/05/27 01:42:52;;;;;;;7.47;4.40;;;;;;;;;;5055563;28;20025;-69
2023/05/27 01:45:19;;;;;;;7.55;4.88;;;;;;;;;;5055437;28;20028;-68
2023/05/27 01:47:45;;;;;;;9.10;4.95;;;;;;;;;;5055132;28;20025;-69
2023/05/27 01:50:11;;;;;;;8.60;5.13;;;;;;;;;;5054996;28;20041;-69
2023/05/27 01:52:38;;;;;;;10.65;4.75;;;;;;;;;;5055529;28;20054;-69
2023/05/27 01:55:05;;;;;;;6.82;4.65;;;;;;;;;;5055014;28;20025;-68
2023/05/27 01:57:31;;;;;;;11.68;4.97;;;;;;;;;;5055005;28;20033;-69
2023/05/27 01:59:57;;;;;;;9.57;5.00;;;;;;;;;;5055369;28;20021;-69
2023/05/27 02:02:24;;;;;;;8.45;4.82;;;;;;;;;;5055340;28;20021;-69
2023/05/27 02:04:50;;;;;;;6.88;4.22;;;;;;;;;;5054689;28;20400;-69
2023/05/27 02:07:16;;;;;;;6.43;4.60;;;;;;;;;;5053569;28;20033;-69
2023/05/27 02:09:44;;;;;;;8.43;4.80;;;;;;;;;;5054797;28;20033;-68
2023/05/27 02:12:11;;;;;;;9.48;4.38;;;;;;;;;;5053516;28;20025;-69
2023/05/27 02:14:38;;;;;;;9.05;5.47;;;;;;;;;;5053574;28;20025;-68
2023/05/27 02:17:06;;;;;;;14.13;5.15;;;;;;;;;;5054782;28;20029;-69
2023/05/27 02:19:32;;;;;;;6.45;4.63;;;;;;;;;;5054410;28;20032;-69
2023/05/27 02:21:59;;;;;;;7.13;4.32;;;;;;;;;;5054782;28;20025;-68
2023/05/27 02:24:25;;;;;;;7.70;4.88;;;;;;;;;;5054557;28;20412;-69
2023/05/27 02:26:51;;;;;;;8.85;4.97;;;;;;;;;;5054537;28;20486;-69
2023/05/27 02:29:17;;;;;;;5.82;4.68;;;;;;;;;;5054557;28;20033;-68
2023/05/27 02:31:44;;;;;;;8.27;4.53;;;;;;;;;;5054446;28;20021;-69
2023/05/27 02:34:10;;;;;;;9.13;4.60;;;;;;;;;;5054391;28;20025;-69
2023/05/27 02:36:39;;;;;;;12.55;5.15;;;;;;;;;;5054482;28;20025;-68
2023/05/27 02:39:06;;;;;;;9.70;5.15;;;;;;;;;;5054214;28;20037;-69
2023/05/27 02:41:32;;;;;;;9.07;5.13;;;;;;;;;;5054256;28;20027;-69
2023/05/27 02:43:59;;;;;;;6.60;4.70;;;;;;;;;;5053653;28;20021;-69
2023/05/27 02:46:25;;;;;;;8.82;5.10;;;;;;;;;;5054450;28;20021;-69
2023/05/27 02:48:51;;;;;;;9.65;5.13;;;;;;;;;;5054131;28;20032;-68
2023/05/27 02:51:18;;;;;;;6.65;4.47;;;;;;;;;;5054011;28;20021;-69
2023/05/27 02:53:44;;;;;;;9.65;4.80;;;;;;;;;;5053993;28;20033;-68
2023/05/27 02:56:10;;;;;;;7.82;4.82;;;;;;;;;;5054124;28;20033;-69
2023/05/27 02:58:36;;;;;;;8.93;4.63;;;;;;;;;;5053979;28;20033;-69
2023/05/27 03:01:03;;;;;;;8.77;5.70;;;;;;;;;;5053988;28;20035;-69
2023/05/27 03:03:29;;;;;;;5.55;4.22;;;;;;;;;;5053652;28;20031;-68
2023/05/27 03:05:56;;;;;;;11.45;4.90;;;;;;;;;;5053713;28;20449;-69
2023/05/27 03:08:22;;;;;;;7.72;5.30;;;;;;;;;;5053768;28;20086;-69
2023/05/27 03:10:48;;;;;;;9.90;5.03;;;;;;;;;;5053676;28;20507;-69
2023/05/27 03:13:15;;;;;;;10.73;5.05;;;;;;;;;;5053828;28;20569;-69
2023/05/27 03:15:41;;;;;;;8.57;5.07;;;;;;;;;;5053593;28;20028;-68
2023/05/27 03:18:07;;;;;;;7.90;4.97;;;;;;;;;;5053488;28;20029;-69
2023/05/27 03:20:33;;;;;;;6.65;5.05;;;;;;;;;;5053547;28;20474;-68
2023/05/27 03:23:00;;;;;;;6.72;4.97;;;;;;;;;;5053517;28;20033;-69
2023/05/27 03:25:26;;;;;;;8.60;5.28;;;;;;;;;;5053431;28;20401;-69
2023/05/27 03:27:53;;;;;;;9.10;4.75;;;;;;;;;;5053527;28;20029;-69
2023/05/27 03:30:19;;;;;;;8.43;5.00;;;;;;;;;;5053247;28;20036;-68
2023/05/27 03:32:46;;;;;;;9.70;4.85;;;;;;;;;;5053170;28;20412;-69
2023/05/27 03:35:12;;;;;;;11.40;5.68;;;;;;;;;;5053614;28;20062;-69
2023/05/27 03:37:38;;;;;;;5.20;4.60;;;;;;;;;;5053260;28;20019;-69
2023/05/27 03:40:05;;;;;;;8.43;5.35;;;;;;;;;;5053287;28;20029;-69
2023/05/27 03:42:32;;;;;;;9.18;5.43;;;;;;;;;;5053381;28;20021;-69
2023/05/27 03:44:58;;;;;;;8.45;6.18;;;;;;;;;;5053046;28;20078;-68
2023/05/27 03:47:24;;;;;;;9.65;5.70;;;;;;;;;;5052917;28;20479;-69
2023/05/27 03:49:51;;;;;;;8.88;5.15;;;;;;;;;;5053058;28;20033;-69
2023/05/27 03:52:17;;;;;;;10.15;5.57;;;;;;;;;;5052960;28;20021;-69
2023/05/27 03:54:43;;;;;;;12.60;5.13;;;;;;;;;;5052619;28;20017;-69
2023/05/27 03:57:09;;;;;;;11.02;5.30;;;;;;;;;;5052758;28;20029;-69
2023/05/27 03:59:37;;;;;;;11.25;5.20;;;;;;;;;;5052954;28;20021;-69
2023/05/27 04:02:04;;;;;;;7.60;5.10;;;;;;;;;;5052634;28;20029;-69
2023/05/27 04:04:30;;;;;;;6.75;5.00;;;;;;;;;;5052920;28;20025;-69
2023/05/27 04:06:57;;;;;;;9.77;5.35;;;;;;;;;;5052896;28;20086;-68
2023/05/27 04:09:23;;;;;;;11.65;5.32;;;;;;;;;;5052614;28;20374;-68
2023/05/27 04:11:49;;;;;;;6.55;4.75;;;;;;;;;;5052622;28;20024;-69
2023/05/27 04:14:16;;;;;;;11.07;5.90;;;;;;;;;;5052688;28;20035;-69
2023/05/27 04:16:42;;;;;;;12.23;5.30;;;;;;;;;;5052350;28;20021;-69
2023/05/27 04:19:09;;;;;;;8.18;5.82;;;;;;;;;;5052412;28;20031;-68
2023/05/27 04:21:36;;;;;;;9.68;5.65;;;;;;;;;;5052652;28;20029;-68
2023/05/27 04:24:03;;;;;;;7.80;5.50;;;;;;;;;;5052125;28;20041;-68
2023/05/27 04:26:29;;;;;;;8.40;5.03;;;;;;;;;;5052631;28;20036;-69
2023/05/27 04:28:59;;;;;;;8.63;4.93;;;;;;;;;;5052100;28;20527;-68
2023/05/27 04:31:28;;;;;;;6.27;5.27;;;;;;;;;;5052257;28;20478;-68
2023/05/27 04:33:55;;;;;;;8.07;5.20;;;;;;;;;;5052261;28;20021;-69
2023/05/27 04:36:24;;;;;;;9.93;5.57;;;;;;;;;;5052070;28;20027;-69
2023/05/27 04:38:51;;;;;;;9.88;5.35;;;;;;;;;;5052423;28;20029;-68
2023/05/27 04:41:20;;;;;;;8.98;6.03;;;;;;;;;;5052611;28;20013;-69
2023/05/27 04:43:47;;;;;;;8.52;5.63;;;;;;;;;;5052088;28;20086;-68
2023/05/27 04:46:14;;;;;;;9.07;5.10;;;;;;;;;;5052196;28;20028;-69
2023/05/27 04:48:40;;;;;;;9.93;5.75;;;;;;;;;;5051916;28;20474;-69
2023/05/27 04:51:07;;;;;;;7.80;5.13;;;;;;;;;;5052074;28;20033;-68
2023/05/27 04:53:34;;;;;;;6.97;5.35;;;;;;;;;;5051962;28;20389;-69
2023/05/27 04:56:00;;;;;;;10.48;5.22;;;;;;;;;;5051984;28;20043;-69
2023/05/27 04:58:27;;;;;;;7.90;5.18;;;;;;;;;;5051626;28;20037;-68
2023/05/27 05:00:56;;;;;;;8.85;5.43;;;;;;;;;;5051809;28;20029;-68
2023/05/27 05:03:36;;;;;;;6.93;5.35;;;;;;;;;;5052315;28;20025;-68
2023/05/27 05:06:03;;;;;;;8.32;5.00;;;;;;;;;;5053576;28;20021;-69
2023/05/27 05:08:30;;;;;;;9.73;5.53;;;;;;;;;;5056008;28;20102;-68
2023/05/27 05:10:56;;;;;;;8.13;5.88;;;;;;;;;;5055971;28;20041;-69
2023/05/27 05:13:22;;;;;;;9.80;5.63;;;;;;;;;;5056094;28;20063;-69
2023/05/27 05:15:49;;;;;;;8.63;5.53;;;;;;;;;;5055912;28;20495;-69
2023/05/27 05:18:15;;;;;;;9.85;5.82;;;;;;;;;;5055752;28;20017;-69
2023/05/27 05:20:41;;;;;;;8.68;5.43;;;;;;;;;;5056177;28;20036;-68
2023/05/27 05:23:09;;;;;;;8.80;5.68;;;;;;;;;;5054582;28;20041;-69
2023/05/27 05:25:37;;;;;;;7.75;5.10;;;;;;;;;;5055773;28;20086;-69
2023/05/27 05:28:07;;;;;;;10.50;6.72;;;;;;;;;;5055482;28;20043;-69
2023/05/27 05:30:33;;;;;;;7.38;5.50;;;;;;;;;;5055874;28;20045;-69
2023/05/27 05:32:59;;;;;;;9.65;5.95;;;;;;;;;;5055718;28;20021;-69
2023/05/27 05:35:26;;;;;;;8.70;6.45;;;;;;;;;;5055658;28;20136;-69
2023/05/27 05:37:52;;;;;;;7.45;5.70;;;;;;;;;;5055862;28;20017;-69
2023/05/27 05:40:18;;;;;;;7.82;5.30;;;;;;;;;;5054234;28;20029;-69
2023/05/27 05:42:45;;;;;;;10.57;5.93;;;;;;;;;;5055241;28;20037;-69
2023/05/27 05:45:12;;;;;;;8.82;6.13;;;;;;;;;;5055576;28;20016;-69
2023/05/27 05:47:38;;;;;;;7.18;6.07;;;;;;;;;;5055234;28;20485;-69
2023/05/27 05:50:04;;;;;;;8.13;5.40;;;;;;;;;;5055289;28;20029;-69
2023/05/27 05:52:31;;;;;;;6.82;5.40;;;;;;;;;;5055384;28;20021;-68
2023/05/27 05:54:57;;;;;;;12.18;6.22;;;;;;;;;;5055369;28;20031;-69
2023/05/27 05:57:23;;;;;;;11.70;5.82;;;;;;;;;;5054771;28;20023;-69
2023/05/27 05:59:50;;;;;;;8.60;6.22;;;;;;;;;;5055106;28;20044;-68
2023/05/27 06:02:16;;;;;;;10.20;6.03;;;;;;;;;;5055099;28;20028;-69
2023/05/27 06:04:42;;;;;;;10.77;5.93;;;;;;;;;;5054993;28;20404;-69
2023/05/27 06:07:09;;;;;;;15.15;5.75;;;;;;;;;;5054970;28;20371;-69
2023/05/27 06:09:35;;;;;;;8.93;5.30;;;;;;;;;;5054786;28;20508;-68
2023/05/27 06:12:01;;;;;;;13.40;5.63;;;;;;;;;;5054789;28;20031;-69
2023/05/27 06:14:28;;;;;;;8.98;5.60;;;;;;;;;;5054961;28;20027;-68
2023/05/27 06:16:54;;;;;;;8.07;5.60;;;;;;;;;;5054768;28;20032;-69
2023/05/27 06:19:20;;;;;;;6.53;5.40;;;;;;;;;;5055068;28;20389;-68
2023/05/27 06:21:47;;;;;;;10.75;5.93;;;;;;;;;;5054827;28;20029;-69
2023/05/27 06:24:13;;;;;;;10.35;6.22;;;;;;;;;;5054463;28;20040;-69
2023/05/27 06:26:39;;;;;;;8.73;5.47;;;;;;;;;;5054478;28;20078;-69
2023/05/27 06:29:06;;;;;;;7.90;5.40;;;;;;;;;;5053252;28;20080;-69
2023/05/27 06:31:33;;;;;;;10.35;5.40;;;;;;;;;;5054504;28;20021;-69
2023/05/27 06:33:59;;;;;;;11.82;6.38;;;;;;;;;;5054377;28;20028;-69
2023/05/27 06:36:26;;;;;;;6.90;5.35;;;;;;;;;;5054364;28;20401;-69
2023/05/27 06:38:53;;;;;;;6.93;5.05;;;;;;;;;;5054591;28;20035;-69
2023/05/27 06:41:19;;;;;;;13.05;5.70;;;;;;;;;;5054165;28;20050;-68
2023/05/27 06:43:46;;;;;;;8.35;5.47;;;;;;;;;;5054439;28;20094;-69
2023/05/27 06:46:12;;;;;;;7.20;5.35;;;;;;;;;;5054166;28;20017;-69
2023/05/27 06:48:38;;;;;;;9.05;5.85;;;;;;;;;;5054383;28;20025;-69
2023/05/27 06:51:05;;;;;;;12.15;4.97;;;;;;;;;;5054156;28;20033;-69
2023/05/27 06:53:32;;;;;;;5.68;4.43;;;;;;;;;;5054318;28;20021;-69
2023/05/27 06:55:58;;;;;;;6.90;4.38;;;;;;;;;;5053976;28;20033;-69
2023/05/27 06:58:24;;;;;;;6.25;4.35;;;;;;;;;;5053825;28;20027;-69
2023/05/27 07:00:51;;;;;;;6.43;4.90;;;;;;;;;;5053826;28;20051;-69
2023/05/27 07:03:17;;;;;;;9.55;4.88;;;;;;;;;;5054221;28;20017;-68
2023/05/27 07:05:43;;;;;;;8.10;5.53;;;;;;;;;;5053804;28;20074;-69
2023/05/27 07:08:10;;;;;;;8.10;4.45;;;;;;;;;;5054037;28;20021;-69
2023/05/27 07:10:36;;;;;;;7.72;4.50;;;;;;;;;;5053589;28;20396;-69
2023/05/27 07:13:02;;;;;;;10.05;4.30;;;;;;;;;;5053879;28;20021;-69
2023/05/27 07:15:28;;;;;;;8.50;4.30;;;;;;;;;;5053590;28;20025;-69
2023/05/27 07:17:55;;;;;;;9.73;4.95;;;;;;;;;;5053736;28;20478;-69
2023/05/27 07:20:21;;;;;;;7.85;4.70;;;;;;;;;;5053807;28;20041;-69
2023/05/27 07:22:48;;;;;;;6.97;4.20;;;;;;;;;;5053323;28;20162;-69
2023/05/27 07:25:14;;;;;;;9.13;4.40;;;;;;;;;;5053241;28;20025;-69
2023/05/27 07:27:40;;;;;;;5.85;4.10;;;;;;;;;;5053472;28;20029;-69
2023/05/27 07:30:08;;;;;;;4.80;4.30;;;;;;;;;;5052799;28;20037;-67
2023/05/27 07:32:34;;;;;;;9.55;4.43;;;;;;;;;;5053319;28;20040;-67
2023/05/27 07:35:00;;;;;;;7.38;4.10;;;;;;;;;;5053435;28;20028;-67
2023/05/27 07:37:28;;;;;;;8.75;4.32;;;;;;;;;;5053307;28;20426;-67
2023/05/27 07:39:54;;;;;;;5.75;4.43;;;;;;;;;;5052968;28;20444;-67
2023/05/27 07:42:21;;;;;;;6.18;4.30;;;;;;;;;;5053149;28;20025;-68
2023/05/27 07:44:47;;;;;;;6.05;3.95;;;;;;;;;;5053381;28;20032;-68
2023/05/27 07:47:13;;;;;;;8.27;4.25;;;;;;;;;;5051959;28;20481;-67
2023/05/27 07:49:39;;;;;;;5.00;4.00;;;;;;;;;;5051705;28;20045;-68
2023/05/27 07:52:06;;;;;;;6.97;4.20;;;;;;;;;;5052937;28;20385;-68
2023/05/27 07:54:32;;;;;;;7.03;4.40;;;;;;;;;;5052693;28;20025;-68
2023/05/27 07:56:59;;;;;;;5.55;3.90;;;;;;;;;;5052691;28;20456;-68
2023/05/27 07:59:25;;;;;;;7.72;4.32;;;;;;;;;;5052637;28;20021;-68
2023/05/27 08:01:51;;;;;;;7.47;4.47;;;;;;;;;;5052878;28;20031;-68
2023/05/27 08:04:17;;;;;;;6.97;3.83;;;;;;;;;;5053173;28;20025;-68
2023/05/27 08:06:44;;;;;;;5.13;3.85;;;;;;;;;;5052458;28;20035;-69
2023/05/27 08:09:11;;;;;;;6.53;3.95;;;;;;;;;;5052447;28;20047;-68
2023/05/27 08:11:37;;;;;;;6.65;4.32;;;;;;;;;;5052512;28;20021;-68
2023/05/27 08:14:04;;;;;;;5.22;3.80;;;;;;;;;;5052402;28;20105;-68
2023/05/27 08:16:31;;;;;;;5.82;3.50;;;;;;;;;;5052585;28;20074;-68
2023/05/27 08:18:57;;;;;;;7.40;4.07;;;;;;;;;;5052434;28;20024;-68
2023/05/27 08:21:23;;;;;;;5.03;3.85;;;;;;;;;;5052229;28;20363;-68
2023/05/27 08:23:50;;;;;;;5.35;4.05;;;;;;;;;;5052313;28;20055;-68
2023/05/27 08:26:16;;;;;;;7.28;4.03;;;;;;;;;;5052341;28;20060;-68
2023/05/27 08:28:43;;;;;;;6.20;3.92;;;;;;;;;;5052362;28;20028;-68
2023/05/27 08:31:10;;;;;;;4.20;3.78;;;;;;;;;;5052759;28;20043;-68
2023/05/27 08:33:36;;;;;;;9.90;3.97;;;;;;;;;;5052152;28;20527;-68
2023/05/27 08:36:02;;;;;;;6.93;4.32;;;;;;;;;;5052306;28;20066;-68
2023/05/27 08:38:29;;;;;;;6.57;4.20;;;;;;;;;;5052233;28;20407;-68
2023/05/27 08:40:55;;;;;;;5.03;4.10;;;;;;;;;;5051295;28;20025;-68
2023/05/27 08:43:22;;;;;;;5.22;4.07;;;;;;;;;;5052048;28;20059;-68
2023/05/27 08:45:49;;;;;;;6.35;4.18;;;;;;;;;;5052070;28;20078;-68
2023/05/27 08:48:16;;;;;;;4.88;3.90;;;;;;;;;;5052335;28;20025;-68
2023/05/27 08:50:42;;;;;;;5.88;4.10;;;;;;;;;;5050540;28;20032;-68
2023/05/27 08:53:09;;;;;;;7.38;4.15;;;;;;;;;;5051915;28;20493;-68
2023/05/27 08:55:38;;;;;;;4.28;3.88;;;;;;;;;;5051929;28;20059;-68
2023/05/27 08:58:05;;;;;;;4.63;3.90;;;;;;;;;;5051869;28;20505;-68
2023/05/27 09:00:32;;;;;;;6.43;3.88;;;;;;;;;;5051935;28;20033;-68
2023/05/27 09:02:59;;;;;;;5.50;3.70;;;;;;;;;;5050610;28;20369;-69
2023/05/27 09:05:26;;;;;;;6.88;4.05;;;;;;;;;;5051617;28;20059;-68
2023/05/27 09:07:52;;;;;;;5.65;3.88;;;;;;;;;;5052423;28;20029;-68
2023/05/27 09:10:19;;;;;;;4.90;3.80;;;;;;;;;;5052068;28;20123;-68
2023/05/27 09:12:45;;;;;;;5.20;3.80;;;;;;;;;;5052043;28;20029;-69
2023/05/27 09:15:12;;;;;;;4.88;3.58;;;;;;;;;;5051997;28;20025;-69
2023/05/27 09:17:45;;;;;;;4.47;3.67;;;;;;;;;;5052079;28;20021;-68
2023/05/27 09:20:12;;;;;;;5.15;3.60;;;;;;;;;;5051371;28;20044;-68
2023/05/27 09:22:39;;;;;;;5.28;3.75;;;;;;;;;;5051916;28;20041;-68
2023/05/27 09:25:06;;;;;;;6.18;3.53;;;;;;;;;;5051579;28;20039;-69
2023/05/27 09:27:32;;;;;;;5.05;3.60;;;;;;;;;;5051718;28;20016;-68
2023/05/27 09:30:09;;;;;;;6.18;3.30;;;;;;;;;;5051774;28;20027;-68
2023/05/27 09:32:36;;;;;;;7.85;3.90;;;;;;;;;;5051719;28;20039;-68
2023/05/27 09:35:02;;;;;;;6.38;3.45;;;;;;;;;;5051476;28;20017;-68
2023/05/27 09:37:32;;;;;;;5.15;3.45;;;;;;;;;;5051725;28;20029;-69
2023/05/27 09:39:59;;;;;;;4.63;3.38;;;;;;;;;;5051472;28;20033;-68
2023/05/27 09:42:26;;;;;;;6.53;3.35;;;;;;;;;;5051495;28;20017;-68
2023/05/27 09:44:54;;;;;;;4.55;3.22;;;;;;;;;;5051768;28;20025;-69
2023/05/27 09:47:22;;;;;;;4.15;2.90;;;;;;;;;;5051467;28;20033;-68
2023/05/27 09:49:50;;;;;;;6.55;3.33;;;;;;;;;;5051385;28;20025;-69
2023/05/27 09:52:20;;;;;;;4.28;2.90;;;;;;;;;;5053524;28;20021;-69
2023/05/27 09:54:47;;;;;;;3.22;2.90;;;;;;;;;;5055296;28;20388;-69
2023/05/27 09:57:14;;;;;;;5.50;3.03;;;;;;;;;;5055189;28;20047;-69
2023/05/27 09:59:40;;;;;;;3.88;2.78;;;;;;;;;;5055091;28;20037;-69
2023/05/27 10:02:07;;;;;;;5.85;2.90;;;;;;;;;;5054999;28;20047;-69
2023/05/27 10:04:33;;;;;;;4.85;2.85;;;;;;;;;;5055184;28;20025;-68
2023/05/27 10:07:02;;;;;;;7.25;2.60;;;;;;;;;;5054802;28;20020;-69
2023/05/27 10:09:28;;;;;;;2.97;2.53;;;;;;;;;;5055221;28;20024;-69
2023/05/27 10:11:55;;;;;;;2.65;2.30;;;;;;;;;;5054902;28;20413;-69
2023/05/27 10:14:21;;;;;;;9.95;6.47;;;;;;;;;;5054635;28;20496;-69
2023/05/27 10:16:56;;;;;;;5.10;3.47;;;;;;;;;;5054983;28;20029;-69
2023/05/27 10:19:22;;;;;;;4.65;3.20;;;;;;;;;;5054453;28;20025;-69
2023/05/27 10:21:49;;;;;;;4.78;2.40;;;;;;;;;;5054969;28;20041;-69
2023/05/27 10:24:15;;;;;;;5.65;2.60;;;;;;;;;;5054366;28;20033;-68
2023/05/27 10:26:42;;;;;;;5.85;3.08;;;;;;;;;;5054708;28;20481;-69
2023/05/27 10:29:10;;;;;;;10.60;5.55;;;;;;;;;;5054611;28;20021;-69
2023/05/27 10:31:37;;;;;;;47.97;25.20;;;;;;;;;;5054410;28;20400;-69
2023/05/27 10:34:06;;;;;;;10.75;5.45;;;;;;;;;;5054202;28;20507;-69
2023/05/27 10:36:32;;;;;;;;;;;;;;;;;;5053711;28;20499;-68
2023/05/27 10:39:04;;;;;;;5.32;2.60;;;;;;;;;;5054285;28;20380;-68
2023/05/27 10:42:03;;;;;;;5.03;2.75;;;;;;;;;;5054750;28;20025;-69
2023/05/27 10:44:33;;;;;;;4.53;2.97;;;;;;;;;;5032128;28;20483;-68
2023/05/27 10:47:03;;;;;;;2.85;2.17;;;;;;;;;;5031634;28;20030;-68
2023/05/27 10:49:36;;;;;;;5.05;2.78;;;;;;;;;;5032040;28;20034;-69
2023/05/27 10:52:12;;;;;;;3.58;2.55;;;;;;;;;;5031989;28;20033;-68
2023/05/27 10:54:39;;;;;;;4.40;2.65;;;;;;;;;;5031947;28;20043;-69
2023/05/27 10:57:06;;;;;;;4.40;2.25;;;;;;;;;;5031783;28;20031;-68
2023/05/27 10:59:40;;;;;;;3.50;2.50;;;;;;;;;;5031717;28;20036;-69
2023/05/27 11:02:07;;;;;;;4.53;2.40;;;;;;;;;;5031543;28;20030;-68
2023/05/27 11:04:36;;;;;;;5.25;2.70;;;;;;;;;;5031030;28;20025;-69
2023/05/27 11:07:03;;;;;;;5.25;2.70;;;;;;;;;;5032136;28;20037;-68
2023/05/27 11:09:29;;;;;;;3.97;2.67;;;;;;;;;;5032031;28;20029;-68
2023/05/27 11:11:56;;;;;;;3.83;2.67;;;;;;;;;;5031836;28;20048;-68
2023/05/27 11:14:23;;;;;;;4.65;2.88;;;;;;;;;;5031527;28;20444;-69
2023/05/27 11:16:53;;;;;;;3.90;2.53;;;;;;;;;;5031364;28;20028;-68
2023/05/27 11:19:19;;;;;;;;;;;;;;;;;;5032364;28;20371;-68
2023/05/27 11:21:46;;;;;;;4.80;2.70;;;;;;;;;;5033995;28;19909;-68
2023/05/27 11:24:19;;;;;;;4.25;2.70;;;;;;;;;;5033432;28;20383;-68
2023/05/27 11:26:46;;;;;;;4.80;2.65;;;;;;;;;;5033573;28;20090;-69
2023/05/27 11:29:13;;;;;;;6.70;2.80;;;;;;;;;;5032350;28;20417;-69
2023/05/27 11:31:40;;;;;;;5.20;2.90;;;;;;;;;;5033241;28;20033;-68
2023/05/27 11:34:16;;;;;;;4.95;2.72;;;;;;;;;;5033317;28;20386;-68
2023/05/27 11:36:46;;;;;;;5.45;2.50;;;;;;;;;;5033743;28;20037;-69
2023/05/27 11:39:18;;;;;;;4.18;2.97;;;;;;;;;;5033590;28;20034;-69
2023/05/27 11:41:51;;;;;;;5.22;2.78;;;;;;;;;;5033383;28;20026;-69
2023/05/27 11:44:22;;;;;;;2.67;2.42;;;;;;;;;;5033034;28;20030;-69
2023/05/27 11:46:49;;;;;;;5.97;2.75;;;;;;;;;;5033355;28;20027;-69
2023/05/27 11:49:17;;;;;;;6.70;2.70;;;;;;;;;;5033108;28;20025;-69
2023/05/27 11:51:44;;;;;;;4.32;2.55;;;;;;;;;;5033107;28;20017;-68
2023/05/27 11:54:26;;;;;;;4.65;2.78;;;;;;;;;;5032759;28;20486;-68
2023/05/27 11:56:53;;;;;;;3.17;2.65;;;;;;;;;;5037468;28;20485;-68
2023/05/27 11:59:21;;;;;;;5.15;2.90;;;;;;;;;;5052387;28;20035;-69
2023/05/27 12:01:48;;;;;;;4.43;2.70;;;;;;;;;;5053091;28;20107;-68
2023/05/27 12:04:14;;;;;;;6.22;3.08;;;;;;;;;;5052990;28;20036;-68
2023/05/27 12:06:41;;;;;;;6.38;2.63;;;;;;;;;;5053037;28;20029;-68
2023/05/27 12:09:08;;;;;;;4.25;3.03;;;;;;;;;;5052986;28;20028;-69
2023/05/27 12:11:35;;;;;;;6.85;3.00;;;;;;;;;;5052751;28;20032;-68
2023/05/27 12:14:01;;;;;;;6.65;2.97;;;;;;;;;;5052290;28;20363;-68
2023/05/27 12:16:28;;;;;;;4.50;2.60;;;;;;;;;;5051465;28;20069;-68
2023/05/27 12:18:54;;;;;;;4.85;2.55;;;;;;;;;;5052425;28;20037;-68
2023/05/27 12:21:20;;;;;;;7.57;3.00;;;;;;;;;;5052550;28;20061;-68
2023/05/27 12:23:47;;;;;;;5.13;2.92;;;;;;;;;;5052230;28;20056;-68
2023/05/27 12:26:14;;;;;;;4.95;2.67;;;;;;;;;;5052581;28;20033;-68
2023/05/27 12:28:41;;;;;;;5.88;2.42;;;;;;;;;;5052283;28;20032;-68
2023/05/27 12:31:07;;;;;;;4.10;2.33;;;;;;;;;;5052333;28;20411;-68
2023/05/27 12:33:34;;;;;;;7.78;2.88;;;;;;;;;;5052378;28;20035;-68
2023/05/27 12:36:00;;;;;;;4.22;2.60;;;;;;;;;;5052209;28;20035;-68
2023/05/27 12:38:27;;;;;;;4.38;2.50;;;;;;;;;;5052548;28;20058;-68
2023/05/27 12:40:55;;;;;;;6.38;2.70;;;;;;;;;;5052156;28;20043;-68
2023/05/27 12:43:23;;;;;;;3.60;2.92;;;;;;;;;;5051924;28;20470;-68
2023/05/27 12:45:49;;;;;;;5.22;2.67;;;;;;;;;;5052140;28;20025;-68
2023/05/27 12:48:17;;;;;;;5.22;2.97;;;;;;;;;;5051992;28;20025;-68
2023/05/27 12:50:43;;;;;;;5.40;2.65;;;;;;;;;;5052257;28;20017;-68
2023/05/27 12:53:10;;;;;;;10.20;2.70;;;;;;;;;;5052334;28;20017;-68
2023/05/27 12:55:37;;;;;;;7.25;3.03;;;;;;;;;;5051984;28;20179;-68
2023/05/27 12:58:03;;;;;;;5.95;2.97;;;;;;;;;;5051651;28;20017;-68
2023/05/27 13:00:31;;;;;;;4.00;2.60;;;;;;;;;;5051805;28;20542;-68
2023/05/27 13:03:01;;;;;;;4.68;2.75;;;;;;;;;;5050824;28;20025;-68
2023/05/27 13:05:28;;;;;;;6.03;2.90;;;;;;;;;;5052118;28;20028;-68
2023/05/27 13:07:56;;;;;;;8.27;2.80;;;;;;;;;;5051971;28;20078;-68
2023/05/27 13:10:22;;;;;;;8.45;2.83;;;;;;;;;;5051723;28;20519;-68
2023/05/27 13:12:48;;;;;;;8.55;2.72;;;;;;;;;;5051640;28;20025;-67
2023/05/27 13:15:16;;;;;;;7.00;3.20;;;;;;;;;;5051865;28;20036;-68
2023/05/27 13:17:44;;;;;;;8.10;2.88;;;;;;;;;;5051774;28;20027;-68
2023/05/27 13:20:11;;;;;;;8.52;3.00;;;;;;;;;;5050452;28;20037;-67
2023/05/27 13:22:37;;;;;;;5.32;2.95;;;;;;;;;;5051603;28;20029;-68
2023/05/27 13:25:04;;;;;;;5.63;2.55;;;;;;;;;;5051594;28;20392;-68
2023/05/27 13:27:31;;;;;;;4.10;2.70;;;;;;;;;;5054182;28;20039;-68
2023/05/27 13:29:57;;;;;;;6.68;3.33;;;;;;;;;;5055683;28;20027;-68
2023/05/27 13:32:24;;;;;;;11.02;3.55;;;;;;;;;;5055910;28;20029;-67
2023/05/27 13:34:55;;;;;;;6.65;3.35;;;;;;;;;;5055540;28;20074;-67
2023/05/27 13:37:21;;;;;;;5.03;2.78;;;;;;;;;;5055508;28;20033;-68
2023/05/27 13:39:47;;;;;;;7.03;3.05;;;;;;;;;;5055362;28;20047;-67
2023/05/27 13:42:14;;;;;;;6.28;3.38;;;;;;;;;;5055369;28;20020;-68
2023/05/27 13:44:41;;;;;;;5.40;2.78;;;;;;;;;;5054234;28;20035;-68
2023/05/27 13:47:07;;;;;;;6.60;3.15;;;;;;;;;;5055447;28;20507;-68
2023/05/27 13:49:35;;;;;;;5.85;3.30;;;;;;;;;;5055441;28;20031;-68
2023/05/27 13:52:02;;;;;;;5.93;2.95;;;;;;;;;;5055296;28;20017;-67
2023/05/27 13:54:28;;;;;;;7.90;3.40;;;;;;;;;;5055274;28;20028;-67
2023/05/27 13:56:55;;;;;;;9.68;3.42;;;;;;;;;;5053634;28;20074;-68
2023/05/27 13:59:21;;;;;;;4.22;3.00;;;;;;;;;;5055039;28;20531;-68
2023/05/27 14:01:49;;;;;;;6.78;3.10;;;;;;;;;;5055106;28;20470;-67
2023/05/27 14:04:16;;;;;;;10.07;3.28;;;;;;;;;;5055039;28;20021;-67
2023/05/27 14:06:42;;;;;;;8.25;3.00;;;;;;;;;;5055301;28;20028;-68
2023/05/27 14:09:09;;;;;;;7.50;3.50;;;;;;;;;;5054980;28;20029;-68
2023/05/27 14:11:35;;;;;;;7.53;3.47;;;;;;;;;;5054618;28;20025;-67
2023/05/27 14:14:01;;;;;;;6.55;3.60;;;;;;;;;;5054830;28;20029;-67
2023/05/27 14:16:28;;;;;;;15.07;3.50;;;;;;;;;;5054852;28;20025;-67
2023/05/27 14:18:54;;;;;;;7.15;2.85;;;;;;;;;;5053751;28;20041;-67
2023/05/27 14:21:20;;;;;;;5.80;3.10;;;;;;;;;;5054822;28;20025;-67
2023/05/27 14:23:46;;;;;;;6.70;3.13;;;;;;;;;;5054544;28;20045;-68
2023/05/27 14:26:15;;;;;;;8.35;3.08;;;;;;;;;;5054591;28;20493;-67
2023/05/27 14:28:42;;;;;;;9.90;3.13;;;;;;;;;;5054634;28;20078;-68
2023/05/27 14:31:08;;;;;;;5.40;2.97;;;;;;;;;;5054681;28;20043;-67
2023/05/27 14:33:34;;;;;;;5.25;3.15;;;;;;;;;;5054382;28;20025;-67
2023/05/27 14:36:01;;;;;;;11.43;3.15;;;;;;;;;;5054563;28;20028;-67
2023/05/27 14:38:27;;;;;;;8.15;3.08;;;;;;;;;;5053171;28;20054;-67
2023/05/27 14:40:53;;;;;;;9.75;3.30;;;;;;;;;;5054244;28;20037;-67
2023/05/27 14:43:20;;;;;;;7.20;3.22;;;;;;;;;;5054287;28;20035;-67